ANA1261 RJNS-RJCC
Flight info
| Callsign | ANA1261 |
|---|---|
| Flight time | 1h 17m |
| Altitude | 39000 |
| Route | FUJIK SZE CHAUS Y151 MYOGI Y15 HEIKE Y153 YTE Y11 SAMBO Y119 OHMAR Y13 SIRAO Y139 NAVER |
| Aircraft | B772/H-SDE2E3FGHIJ5LORVWXY/LB1D1 |
Departure
| Time | 2026-04-26 05:19 |
|---|---|
| Airport | Mount Fuji Shizuoka Airport (RJNS) |
Arrival
| Time | 2026-04-26 06:37 |
|---|---|
| Airport | New Chitose Airport (RJCC) |
| Time | Latitude | Longitude | Altitude | Speed | Heading |
|---|---|---|---|---|---|
| 2026-04-26 04:43 | 34.79609 | 138.17960 | 447 ft | 0 kts | 202° |
| 2026-04-26 05:08 | 34.79615 | 138.17963 | 446 ft | 2 kts | 202° |
| 2026-04-26 05:08 | 34.79629 | 138.17970 | 446 ft | 2 kts | 202° |
| 2026-04-26 05:08 | 34.79643 | 138.17976 | 446 ft | 2 kts | 202° |
| 2026-04-26 05:08 | 34.79657 | 138.17984 | 446 ft | 2 kts | 202° |
| 2026-04-26 05:09 | 34.79670 | 138.17990 | 446 ft | 2 kts | 210° |
| 2026-04-26 05:09 | 34.79682 | 138.18001 | 446 ft | 2 kts | 224° |
| 2026-04-26 05:09 | 34.79693 | 138.18015 | 446 ft | 2 kts | 235° |
| 2026-04-26 05:09 | 34.79700 | 138.18031 | 446 ft | 2 kts | 247° |
| 2026-04-26 05:10 | 34.79705 | 138.18048 | 446 ft | 2 kts | 258° |
| 2026-04-26 05:10 | 34.79707 | 138.18066 | 446 ft | 2 kts | 270° |
| 2026-04-26 05:10 | 34.79706 | 138.18085 | 446 ft | 2 kts | 281° |
| 2026-04-26 05:10 | 34.79702 | 138.18098 | 446 ft | 0 kts | 291° |
| 2026-04-26 05:11 | 34.79702 | 138.18102 | 446 ft | 0 kts | 292° |
| 2026-04-26 05:14 | 34.79713 | 138.18068 | 446 ft | 9 kts | 291° |
| 2026-04-26 05:15 | 34.79741 | 138.17981 | 446 ft | 11 kts | 291° |
| 2026-04-26 05:15 | 34.79773 | 138.17882 | 446 ft | 13 kts | 291° |
| 2026-04-26 05:15 | 34.79810 | 138.17773 | 446 ft | 14 kts | 292° |
| 2026-04-26 05:15 | 34.79846 | 138.17676 | 446 ft | 10 kts | 304° |
| 2026-04-26 05:16 | 34.79893 | 138.17645 | 447 ft | 5 kts | 358° |
| 2026-04-26 05:16 | 34.79908 | 138.17647 | 446 ft | 0 kts | 12° |
| 2026-04-26 05:18 | 34.79922 | 138.17653 | 446 ft | 4 kts | 20° |
| 2026-04-26 05:18 | 34.79966 | 138.17676 | 447 ft | 8 kts | 25° |
| 2026-04-26 05:18 | 34.80004 | 138.17703 | 447 ft | 5 kts | 50° |
| 2026-04-26 05:19 | 34.80000 | 138.17747 | 447 ft | 7 kts | 114° |
| 2026-04-26 05:19 | 34.79902 | 138.18036 | 447 ft | 78 kts | 112° |
| 2026-04-26 05:19 | 34.79590 | 138.18977 | 453 ft | 154 kts | 111° |
| 2026-04-26 05:19 | 34.79166 | 138.20207 | 1145 ft | 160 kts | 114° |
| 2026-04-26 05:20 | 34.78477 | 138.21225 | 2021 ft | 154 kts | 137° |
| 2026-04-26 05:20 | 34.77621 | 138.22057 | 2170 ft | 167 kts | 139° |
| 2026-04-26 05:20 | 34.76654 | 138.22981 | 2208 ft | 187 kts | 139° |
| 2026-04-26 05:20 | 34.75559 | 138.24023 | 2252 ft | 207 kts | 139° |
| 2026-04-26 05:21 | 34.74372 | 138.25157 | 2346 ft | 231 kts | 140° |
| 2026-04-26 05:21 | 34.73234 | 138.26242 | 2692 ft | 245 kts | 140° |
| 2026-04-26 05:21 | 34.71877 | 138.27531 | 3348 ft | 250 kts | 140° |
| 2026-04-26 05:21 | 34.70507 | 138.28833 | 4018 ft | 254 kts | 140° |
| 2026-04-26 05:22 | 34.69110 | 138.30160 | 4642 ft | 260 kts | 140° |
| 2026-04-26 05:22 | 34.67682 | 138.31514 | 5383 ft | 261 kts | 141° |
| 2026-04-26 05:22 | 34.66277 | 138.32967 | 6002 ft | 266 kts | 130° |
| 2026-04-26 05:22 | 34.65381 | 138.34901 | 6592 ft | 271 kts | 106° |
| 2026-04-26 05:23 | 34.65219 | 138.37186 | 7176 ft | 277 kts | 82° |
| 2026-04-26 05:23 | 34.65886 | 138.39409 | 7721 ft | 284 kts | 57° |
| 2026-04-26 05:23 | 34.67272 | 138.41109 | 8255 ft | 289 kts | 31° |
| 2026-04-26 05:23 | 34.69143 | 138.41945 | 8901 ft | 290 kts | 6° |
| 2026-04-26 05:24 | 34.71148 | 138.41756 | 9424 ft | 293 kts | 340° |
| 2026-04-26 05:24 | 34.72922 | 138.40505 | 10018 ft | 292 kts | 314° |
| 2026-04-26 05:24 | 34.74051 | 138.38507 | 10592 ft | 292 kts | 289° |
| 2026-04-26 05:24 | 34.74420 | 138.36035 | 10803 ft | 308 kts | 266° |
| 2026-04-26 05:25 | 34.74255 | 138.33371 | 11039 ft | 328 kts | 270° |
| 2026-04-26 05:25 | 34.74783 | 138.30585 | 11353 ft | 349 kts | 290° |
| 2026-04-26 05:25 | 34.75883 | 138.27890 | 11734 ft | 365 kts | 296° |
| 2026-04-26 05:25 | 34.77162 | 138.25157 | 12342 ft | 376 kts | 301° |
| 2026-04-26 05:26 | 34.78832 | 138.22658 | 13180 ft | 381 kts | 312° |
| 2026-04-26 05:26 | 34.80859 | 138.20587 | 14095 ft | 385 kts | 322° |
| 2026-04-26 05:26 | 34.83228 | 138.18967 | 14897 ft | 393 kts | 333° |
| 2026-04-26 05:26 | 34.85823 | 138.17911 | 15606 ft | 404 kts | 343° |
| 2026-04-26 05:27 | 34.88600 | 138.17215 | 16284 ft | 412 kts | 345° |
| 2026-04-26 05:27 | 34.91433 | 138.16557 | 17063 ft | 415 kts | 346° |
| 2026-04-26 05:27 | 34.94266 | 138.15901 | 17800 ft | 419 kts | 345° |
| 2026-04-26 05:27 | 34.97171 | 138.15224 | 18478 ft | 424 kts | 345° |
| 2026-04-26 05:28 | 35.00064 | 138.14549 | 19231 ft | 426 kts | 344° |
| 2026-04-26 05:28 | 35.03019 | 138.13860 | 19947 ft | 429 kts | 343° |
| 2026-04-26 05:28 | 35.05959 | 138.13171 | 20608 ft | 432 kts | 343° |
| 2026-04-26 05:28 | 35.08887 | 138.12485 | 21251 ft | 435 kts | 342° |
| 2026-04-26 05:29 | 35.11895 | 138.11780 | 21931 ft | 437 kts | 342° |
| 2026-04-26 05:29 | 35.14885 | 138.11076 | 22486 ft | 441 kts | 342° |
| 2026-04-26 05:29 | 35.17700 | 138.10414 | 23080 ft | 443 kts | 341° |
| 2026-04-26 05:29 | 35.20741 | 138.09698 | 23644 ft | 446 kts | 340° |
| 2026-04-26 05:30 | 35.23779 | 138.08981 | 24129 ft | 450 kts | 340° |
| 2026-04-26 05:30 | 35.26897 | 138.08244 | 24438 ft | 459 kts | 340° |
| 2026-04-26 05:30 | 35.30051 | 138.07498 | 24919 ft | 463 kts | 340° |
| 2026-04-26 05:30 | 35.33239 | 138.06747 | 25425 ft | 467 kts | 339° |
| 2026-04-26 05:31 | 35.36461 | 138.05984 | 25860 ft | 472 kts | 339° |
| 2026-04-26 05:31 | 35.39778 | 138.05412 | 26346 ft | 486 kts | 346° |
| 2026-04-26 05:31 | 35.43203 | 138.05449 | 26775 ft | 503 kts | 355° |
| 2026-04-26 05:31 | 35.46704 | 138.06140 | 27264 ft | 518 kts | 5° |
| 2026-04-26 05:32 | 35.50191 | 138.07515 | 27678 ft | 535 kts | 14° |
| 2026-04-26 05:32 | 35.53627 | 138.09567 | 27849 ft | 553 kts | 21° |
| 2026-04-26 05:32 | 35.56979 | 138.11836 | 28258 ft | 558 kts | 21° |
| 2026-04-26 05:32 | 35.60434 | 138.14171 | 28704 ft | 562 kts | 21° |
| 2026-04-26 05:33 | 35.63870 | 138.16467 | 29035 ft | 568 kts | 20° |
| 2026-04-26 05:33 | 35.67374 | 138.18787 | 29363 ft | 574 kts | 20° |
| 2026-04-26 05:33 | 35.70919 | 138.21120 | 29739 ft | 579 kts | 20° |
| 2026-04-26 05:33 | 35.74457 | 138.23439 | 30156 ft | 584 kts | 20° |
| 2026-04-26 05:34 | 35.78075 | 138.25809 | 30851 ft | 582 kts | 20° |
| 2026-04-26 05:34 | 35.81650 | 138.28145 | 31637 ft | 578 kts | 19° |
| 2026-04-26 05:34 | 35.85157 | 138.30434 | 32301 ft | 576 kts | 19° |
| 2026-04-26 05:34 | 35.88722 | 138.32758 | 32894 ft | 576 kts | 19° |
| 2026-04-26 05:35 | 35.92253 | 138.35051 | 33464 ft | 576 kts | 19° |
| 2026-04-26 05:35 | 35.95795 | 138.37350 | 34113 ft | 574 kts | 19° |
| 2026-04-26 05:35 | 35.99324 | 138.39645 | 34770 ft | 572 kts | 18° |
| 2026-04-26 05:35 | 36.02885 | 138.41960 | 35414 ft | 570 kts | 18° |
| 2026-04-26 05:36 | 36.06413 | 138.44255 | 36061 ft | 568 kts | 18° |
| 2026-04-26 05:36 | 36.09928 | 138.46542 | 36663 ft | 566 kts | 18° |
| 2026-04-26 05:36 | 36.13409 | 138.48808 | 37001 ft | 568 kts | 18° |
| 2026-04-26 05:36 | 36.16959 | 138.51119 | 37303 ft | 571 kts | 18° |
| 2026-04-26 05:37 | 36.20460 | 138.53583 | 37748 ft | 578 kts | 25° |
| 2026-04-26 05:37 | 36.23720 | 138.56549 | 38405 ft | 580 kts | 30° |
| 2026-04-26 05:37 | 36.26880 | 138.59677 | 38875 ft | 579 kts | 30° |
| 2026-04-26 05:37 | 36.30013 | 138.62805 | 39099 ft | 581 kts | 30° |
| 2026-04-26 05:38 | 36.36350 | 138.69144 | 39065 ft | 588 kts | 31° |
| 2026-04-26 05:38 | 36.42721 | 138.75534 | 39071 ft | 589 kts | 31° |
| 2026-04-26 05:39 | 36.49101 | 138.81946 | 39076 ft | 587 kts | 31° |
| 2026-04-26 05:39 | 36.55449 | 138.88339 | 39075 ft | 586 kts | 30° |
| 2026-04-26 05:40 | 36.61805 | 138.94751 | 39086 ft | 588 kts | 31° |
| 2026-04-26 05:40 | 36.68155 | 139.01170 | 39070 ft | 588 kts | 30° |
| 2026-04-26 05:41 | 36.74493 | 139.07594 | 39081 ft | 585 kts | 31° |
| 2026-04-26 05:41 | 36.80851 | 139.14049 | 39089 ft | 586 kts | 30° |
| 2026-04-26 05:42 | 36.87224 | 139.20502 | 39103 ft | 589 kts | 30° |
| 2026-04-26 05:42 | 36.93584 | 139.26941 | 39101 ft | 590 kts | 30° |
| 2026-04-26 05:43 | 36.99979 | 139.33432 | 39097 ft | 589 kts | 30° |
| 2026-04-26 05:43 | 37.06375 | 139.39938 | 39106 ft | 590 kts | 30° |
| 2026-04-26 05:44 | 37.12709 | 139.46397 | 39094 ft | 590 kts | 30° |
| 2026-04-26 05:44 | 37.19079 | 139.52908 | 39100 ft | 589 kts | 30° |
| 2026-04-26 05:45 | 37.25420 | 139.59401 | 39100 ft | 591 kts | 29° |
| 2026-04-26 05:45 | 37.31816 | 139.65967 | 39088 ft | 590 kts | 30° |
| 2026-04-26 05:46 | 37.38197 | 139.72479 | 39062 ft | 585 kts | 26° |
| 2026-04-26 05:46 | 37.41528 | 139.75223 | 39066 ft | 574 kts | 18° |
| 2026-04-26 05:46 | 37.45056 | 139.77515 | 39061 ft | 568 kts | 14° |
| 2026-04-26 05:47 | 37.52157 | 139.81876 | 39060 ft | 562 kts | 13° |
| 2026-04-26 05:47 | 37.59148 | 139.86163 | 39059 ft | 562 kts | 14° |
| 2026-04-26 05:48 | 37.66222 | 139.90512 | 39066 ft | 565 kts | 13° |
| 2026-04-26 05:48 | 37.73310 | 139.94884 | 39077 ft | 565 kts | 13° |
| 2026-04-26 05:49 | 37.83884 | 140.01431 | 39075 ft | 562 kts | 13° |
| 2026-04-26 05:50 | 37.90908 | 140.05785 | 39065 ft | 563 kts | 13° |
| 2026-04-26 05:50 | 37.97914 | 140.10147 | 39061 ft | 557 kts | 13° |
| 2026-04-26 05:51 | 38.04912 | 140.14505 | 39039 ft | 560 kts | 13° |
| 2026-04-26 05:51 | 38.11842 | 140.18831 | 39050 ft | 562 kts | 13° |
| 2026-04-26 05:52 | 38.18864 | 140.23228 | 39040 ft | 558 kts | 13° |
| 2026-04-26 05:52 | 38.25850 | 140.27608 | 39032 ft | 560 kts | 13° |
| 2026-04-26 05:53 | 38.32788 | 140.31970 | 39060 ft | 558 kts | 14° |
| 2026-04-26 05:53 | 38.39820 | 140.36005 | 39077 ft | 543 kts | 5° |
| 2026-04-26 05:54 | 38.47064 | 140.38461 | 39091 ft | 536 kts | 360° |
| 2026-04-26 05:54 | 38.54275 | 140.40767 | 39094 ft | 529 kts | 0° |
| 2026-04-26 05:55 | 38.61455 | 140.43065 | 39073 ft | 528 kts | 1° |
| 2026-04-26 05:55 | 38.68519 | 140.45342 | 39063 ft | 524 kts | 1° |
| 2026-04-26 05:56 | 38.75654 | 140.47636 | 39086 ft | 528 kts | 1° |
| 2026-04-26 05:56 | 38.82744 | 140.49934 | 39086 ft | 523 kts | 1° |
| 2026-04-26 05:57 | 38.89807 | 140.52222 | 39086 ft | 525 kts | 2° |
| 2026-04-26 05:57 | 38.96907 | 140.54532 | 39095 ft | 521 kts | 2° |
| 2026-04-26 05:58 | 39.03952 | 140.56825 | 39092 ft | 524 kts | 2° |
| 2026-04-26 05:58 | 39.11064 | 140.59149 | 39088 ft | 532 kts | 2° |
| 2026-04-26 05:59 | 39.18180 | 140.61491 | 39090 ft | 525 kts | 2° |
| 2026-04-26 05:59 | 39.25264 | 140.63821 | 39091 ft | 525 kts | 2° |
| 2026-04-26 06:00 | 39.32338 | 140.66153 | 39069 ft | 525 kts | 4° |
| 2026-04-26 06:00 | 39.39478 | 140.68507 | 39068 ft | 529 kts | 4° |
| 2026-04-26 06:01 | 39.46556 | 140.70854 | 39073 ft | 524 kts | 4° |
| 2026-04-26 06:01 | 39.53599 | 140.73192 | 39069 ft | 521 kts | 4° |
| 2026-04-26 06:02 | 39.60641 | 140.75529 | 39067 ft | 522 kts | 4° |
| 2026-04-26 06:02 | 39.67682 | 140.77872 | 39063 ft | 526 kts | 4° |
| 2026-04-26 06:03 | 39.74758 | 140.80234 | 39073 ft | 525 kts | 4° |
| 2026-04-26 06:03 | 39.81827 | 140.82600 | 39071 ft | 523 kts | 4° |
| 2026-04-26 06:04 | 39.88940 | 140.84982 | 39071 ft | 524 kts | 4° |
| 2026-04-26 06:04 | 39.96046 | 140.87369 | 39070 ft | 525 kts | 4° |
| 2026-04-26 06:05 | 40.03076 | 140.89737 | 39076 ft | 525 kts | 5° |
| 2026-04-26 06:05 | 40.10083 | 140.92104 | 39072 ft | 524 kts | 5° |
| 2026-04-26 06:06 | 40.17266 | 140.94473 | 39056 ft | 518 kts | 1° |
| 2026-04-26 06:06 | 40.24326 | 140.95227 | 39053 ft | 508 kts | 351° |
| 2026-04-26 06:07 | 40.31367 | 140.95460 | 39054 ft | 502 kts | 351° |
| 2026-04-26 06:07 | 40.38349 | 140.95686 | 39045 ft | 502 kts | 351° |
| 2026-04-26 06:08 | 40.45327 | 140.95914 | 39034 ft | 501 kts | 351° |
| 2026-04-26 06:08 | 40.52267 | 140.96141 | 39040 ft | 499 kts | 351° |
| 2026-04-26 06:09 | 40.59203 | 140.96372 | 39033 ft | 496 kts | 351° |
| 2026-04-26 06:09 | 40.66110 | 140.96597 | 39032 ft | 499 kts | 352° |
| 2026-04-26 06:10 | 40.73096 | 140.96829 | 39037 ft | 498 kts | 352° |
| 2026-04-26 06:10 | 40.80051 | 140.97061 | 39032 ft | 497 kts | 351° |
| 2026-04-26 06:11 | 40.87004 | 140.97290 | 39035 ft | 500 kts | 352° |
| 2026-04-26 06:11 | 40.93955 | 140.97523 | 39037 ft | 499 kts | 352° |
| 2026-04-26 06:12 | 41.00951 | 140.97757 | 39031 ft | 502 kts | 352° |
| 2026-04-26 06:12 | 41.07923 | 140.97992 | 39053 ft | 499 kts | 352° |
| 2026-04-26 06:13 | 41.14860 | 140.98225 | 39045 ft | 497 kts | 352° |
| 2026-04-26 06:13 | 41.21808 | 140.98460 | 39045 ft | 498 kts | 352° |
| 2026-04-26 06:14 | 41.28789 | 140.98781 | 39021 ft | 505 kts | 358° |
| 2026-04-26 06:14 | 41.35634 | 141.01035 | 39021 ft | 515 kts | 12° |
| 2026-04-26 06:14 | 41.38977 | 141.02670 | 38516 ft | 515 kts | 13° |
| 2026-04-26 06:15 | 41.42373 | 141.04347 | 37533 ft | 524 kts | 14° |
| 2026-04-26 06:15 | 41.45790 | 141.06038 | 36664 ft | 529 kts | 14° |
| 2026-04-26 06:15 | 41.49262 | 141.07756 | 35964 ft | 532 kts | 14° |
| 2026-04-26 06:15 | 41.52746 | 141.09485 | 35214 ft | 531 kts | 14° |
| 2026-04-26 06:16 | 41.56177 | 141.11188 | 34239 ft | 529 kts | 15° |
| 2026-04-26 06:16 | 41.59633 | 141.12903 | 33188 ft | 526 kts | 15° |
| 2026-04-26 06:16 | 41.63032 | 141.14592 | 32294 ft | 522 kts | 15° |
| 2026-04-26 06:16 | 41.66421 | 141.16275 | 31358 ft | 525 kts | 15° |
| 2026-04-26 06:17 | 41.69891 | 141.18002 | 30458 ft | 525 kts | 16° |
| 2026-04-26 06:17 | 41.73229 | 141.19690 | 29944 ft | 513 kts | 16° |
| 2026-04-26 06:17 | 41.76541 | 141.21372 | 29456 ft | 504 kts | 16° |
| 2026-04-26 06:17 | 41.79844 | 141.23047 | 28843 ft | 500 kts | 16° |
| 2026-04-26 06:18 | 41.83082 | 141.24689 | 28239 ft | 496 kts | 16° |
| 2026-04-26 06:18 | 41.86281 | 141.26314 | 27648 ft | 492 kts | 16° |
| 2026-04-26 06:18 | 41.89463 | 141.27930 | 27059 ft | 488 kts | 17° |
| 2026-04-26 06:18 | 41.92653 | 141.29559 | 26462 ft | 484 kts | 18° |
| 2026-04-26 06:19 | 41.95681 | 141.31547 | 25868 ft | 485 kts | 27° |
| 2026-04-26 06:19 | 41.98435 | 141.34139 | 25274 ft | 485 kts | 37° |
| 2026-04-26 06:19 | 42.00955 | 141.37189 | 24685 ft | 483 kts | 40° |
| 2026-04-26 06:19 | 42.03391 | 141.40288 | 24079 ft | 480 kts | 41° |
| 2026-04-26 06:20 | 42.05807 | 141.43379 | 23468 ft | 477 kts | 41° |
| 2026-04-26 06:20 | 42.08181 | 141.46425 | 22880 ft | 474 kts | 41° |
| 2026-04-26 06:20 | 42.10596 | 141.49525 | 22241 ft | 471 kts | 41° |
| 2026-04-26 06:20 | 42.13969 | 141.53171 | 21399 ft | 462 kts | 30° |
| 2026-04-26 06:21 | 42.15786 | 141.54620 | 20992 ft | 458 kts | 26° |
| 2026-04-26 06:21 | 42.18559 | 141.56696 | 20397 ft | 454 kts | 25° |
| 2026-04-26 06:21 | 42.21340 | 141.58762 | 19758 ft | 451 kts | 26° |
| 2026-04-26 06:21 | 42.24088 | 141.60803 | 19108 ft | 447 kts | 26° |
| 2026-04-26 06:22 | 42.26790 | 141.62814 | 18496 ft | 444 kts | 26° |
| 2026-04-26 06:22 | 42.29500 | 141.64836 | 17884 ft | 440 kts | 26° |
| 2026-04-26 06:22 | 42.32163 | 141.66823 | 17233 ft | 437 kts | 26° |
| 2026-04-26 06:22 | 42.34776 | 141.68776 | 16583 ft | 428 kts | 26° |
| 2026-04-26 06:23 | 42.37347 | 141.70702 | 15957 ft | 418 kts | 26° |
| 2026-04-26 06:23 | 42.39888 | 141.72604 | 15340 ft | 410 kts | 26° |
| 2026-04-26 06:23 | 42.42357 | 141.74455 | 14770 ft | 404 kts | 26° |
| 2026-04-26 06:23 | 42.44830 | 141.76309 | 14138 ft | 403 kts | 26° |
| 2026-04-26 06:24 | 42.47275 | 141.78145 | 13495 ft | 401 kts | 26° |
| 2026-04-26 06:24 | 42.49724 | 141.79985 | 12863 ft | 398 kts | 26° |
| 2026-04-26 06:24 | 42.52119 | 141.81787 | 12320 ft | 394 kts | 26° |
| 2026-04-26 06:24 | 42.54500 | 141.83580 | 11806 ft | 389 kts | 26° |
| 2026-04-26 06:25 | 42.56911 | 141.85169 | 11294 ft | 380 kts | 17° |
| 2026-04-26 06:25 | 42.59438 | 141.86083 | 10792 ft | 369 kts | 5° |
| 2026-04-26 06:25 | 42.61927 | 141.86258 | 10201 ft | 355 kts | 354° |
| 2026-04-26 06:25 | 42.64358 | 141.86137 | 9769 ft | 335 kts | 352° |
| 2026-04-26 06:26 | 42.66619 | 141.85989 | 9312 ft | 320 kts | 352° |
| 2026-04-26 06:26 | 42.68804 | 141.85814 | 8848 ft | 308 kts | 351° |
| 2026-04-26 06:26 | 42.70904 | 141.85625 | 8398 ft | 297 kts | 351° |
| 2026-04-26 06:26 | 42.72942 | 141.85432 | 7962 ft | 288 kts | 350° |
| 2026-04-26 06:27 | 42.74939 | 141.85240 | 7574 ft | 281 kts | 350° |
| 2026-04-26 06:27 | 42.76875 | 141.85051 | 7155 ft | 284 kts | 349° |
| 2026-04-26 06:27 | 42.78884 | 141.84854 | 6696 ft | 288 kts | 350° |
| 2026-04-26 06:27 | 42.80855 | 141.84666 | 6438 ft | 283 kts | 350° |
| 2026-04-26 06:28 | 42.82824 | 141.84335 | 5984 ft | 283 kts | 342° |
| 2026-04-26 06:28 | 42.84716 | 141.83756 | 5751 ft | 277 kts | 341° |
| 2026-04-26 06:28 | 42.86573 | 141.83157 | 5624 ft | 268 kts | 341° |
| 2026-04-26 06:28 | 42.88370 | 141.82582 | 5499 ft | 264 kts | 341° |
| 2026-04-26 06:29 | 42.90163 | 141.82010 | 5362 ft | 266 kts | 341° |
| 2026-04-26 06:29 | 42.91963 | 141.81439 | 5222 ft | 266 kts | 342° |
| 2026-04-26 06:29 | 42.93784 | 141.80862 | 5072 ft | 266 kts | 342° |
| 2026-04-26 06:29 | 42.96175 | 141.80104 | 4887 ft | 266 kts | 342° |
| 2026-04-26 06:30 | 42.97387 | 141.79719 | 4791 ft | 266 kts | 342° |
| 2026-04-26 06:30 | 42.99195 | 141.79143 | 4647 ft | 266 kts | 340° |
| 2026-04-26 06:30 | 43.00849 | 141.78095 | 4502 ft | 258 kts | 321° |
| 2026-04-26 06:30 | 43.02143 | 141.76447 | 4356 ft | 251 kts | 298° |
| 2026-04-26 06:31 | 43.02721 | 141.74280 | 4225 ft | 242 kts | 272° |
| 2026-04-26 06:31 | 43.02591 | 141.72350 | 4110 ft | 235 kts | 250° |
| 2026-04-26 06:31 | 43.01814 | 141.70482 | 3999 ft | 223 kts | 226° |
| 2026-04-26 06:31 | 43.00586 | 141.69255 | 3901 ft | 214 kts | 210° |
| 2026-04-26 06:32 | 42.99315 | 141.68283 | 3800 ft | 207 kts | 211° |
| 2026-04-26 06:32 | 42.98106 | 141.67255 | 3695 ft | 201 kts | 213° |
| 2026-04-26 06:32 | 42.96889 | 141.66333 | 3529 ft | 206 kts | 197° |
| 2026-04-26 06:32 | 42.95462 | 141.66232 | 3264 ft | 209 kts | 176° |
| 2026-04-26 06:33 | 42.94005 | 141.66498 | 2999 ft | 211 kts | 174° |
| 2026-04-26 06:33 | 42.92557 | 141.66774 | 2745 ft | 204 kts | 174° |
| 2026-04-26 06:33 | 42.91185 | 141.67018 | 2497 ft | 194 kts | 175° |
| 2026-04-26 06:33 | 42.89886 | 141.67242 | 2258 ft | 176 kts | 175° |
| 2026-04-26 06:34 | 42.88678 | 141.67452 | 2046 ft | 177 kts | 174° |
| 2026-04-26 06:34 | 42.87478 | 141.67664 | 1814 ft | 172 kts | 174° |
| 2026-04-26 06:34 | 42.86292 | 141.67873 | 1582 ft | 164 kts | 174° |
| 2026-04-26 06:34 | 42.85214 | 141.68062 | 1372 ft | 149 kts | 173° |
| 2026-04-26 06:35 | 42.84246 | 141.68233 | 1190 ft | 129 kts | 173° |
| 2026-04-26 06:35 | 42.83070 | 141.68439 | 957 ft | 125 kts | 172° |
| 2026-04-26 06:35 | 42.82496 | 141.68539 | 841 ft | 123 kts | 172° |
| 2026-04-26 06:35 | 42.81641 | 141.68689 | 672 ft | 123 kts | 172° |
| 2026-04-26 06:36 | 42.80783 | 141.68840 | 487 ft | 121 kts | 172° |
| 2026-04-26 06:36 | 42.79948 | 141.68979 | 311 ft | 120 kts | 171° |
| 2026-04-26 06:36 | 42.79113 | 141.69130 | 167 ft | 120 kts | 171° |
| 2026-04-26 06:36 | 42.78315 | 141.69275 | 78 ft | 102 kts | 173° |
| 2026-04-26 06:37 | 42.77765 | 141.69369 | 75 ft | 54 kts | 173° |
| 2026-04-26 06:37 | 42.77584 | 141.69397 | 76 ft | 13 kts | 183° |
| 2026-04-26 06:37 | 42.77531 | 141.69318 | 78 ft | 12 kts | 259° |
| 2026-04-26 06:37 | 42.77517 | 141.69206 | 81 ft | 11 kts | 262° |
| 2026-04-26 06:38 | 42.77507 | 141.69102 | 84 ft | 13 kts | 263° |
| 2026-04-26 06:38 | 42.77493 | 141.68948 | 87 ft | 15 kts | 262° |
| 2026-04-26 06:38 | 42.77493 | 141.68832 | 88 ft | 9 kts | 308° |
| 2026-04-26 06:38 | 42.77558 | 141.68810 | 89 ft | 10 kts | 353° |
| 2026-04-26 06:39 | 42.77637 | 141.68796 | 91 ft | 13 kts | 353° |
| 2026-04-26 06:39 | 42.77755 | 141.68774 | 91 ft | 21 kts | 352° |
| 2026-04-26 06:39 | 42.77920 | 141.68744 | 87 ft | 25 kts | 353° |
| 2026-04-26 06:39 | 42.78109 | 141.68713 | 83 ft | 28 kts | 353° |
| 2026-04-26 06:40 | 42.78267 | 141.68686 | 80 ft | 15 kts | 352° |
| 2026-04-26 06:40 | 42.78356 | 141.68651 | 83 ft | 13 kts | 326° |
| 2026-04-26 06:40 | 42.78414 | 141.68529 | 88 ft | 16 kts | 290° |
| 2026-04-26 06:40 | 42.78457 | 141.68414 | 98 ft | 9 kts | 304° |
| 2026-04-26 06:41 | 42.78487 | 141.68349 | 108 ft | 7 kts | 294° |
| 2026-04-26 06:41 | 42.78479 | 141.68289 | 111 ft | 6 kts | 239° |
| 2026-04-26 06:41 | 42.78472 | 141.68240 | 111 ft | 1 kts | 300° |
| 2026-04-26 06:41 | 42.78495 | 141.68207 | 111 ft | 6 kts | 313° |
| 2026-04-26 06:42 | 42.78519 | 141.68173 | 110 ft | 3 kts | 314° |
| 2026-04-26 06:42 | 42.78522 | 141.68167 | 109 ft | 0 kts | 314° |